CheckWX is a tool to help pilots better visualize weather data.  It is not intended as a substitute for an official pre-flight weather briefing.

20:57:03 UTC

LCLK METAR
Larnaca International Airport
Larnarca, Cyprus
Current

27 mins ago

LCLK 082030Z 32005KT 9999 FEW025 12/10 Q1014 NOSIG
Observed
Apr-8 @ 20:30 UTC
Wind
  • 320° at 5 KTS
Visibility
10,000+ meters
Flight Rules
VFR
Cloud Levels
  • Few at 2,500' AGL
Temperature
12°C / 54°F
Dewpoint
10°C / 50°F
Humidity
88%
Altimeter
29.94" Hg
Pressure
1013.92 hPa
Previous

57 mins ago

LCLK 082000Z 30004KT 9999 FEW025 12/10 Q1014 NOSIG
Observed
Apr-8 @ 20:00 UTC
Wind
  • 300° at 4 KTS
Visibility
10,000+ meters
Flight Rules
VFR
Cloud Levels
  • Few at 2,500' AGL
Temperature
12°C / 54°F
Dewpoint
10°C / 50°F
Humidity
88%
Altimeter
29.94" Hg
Pressure
1013.92 hPa
Previous

1 hour ago

LCLK 081930Z 29004KT 9999 FEW025 13/11 Q1014 NOSIG
Observed
Apr-8 @ 19:30 UTC
Wind
  • 290° at 4 KTS
Visibility
10,000+ meters
Flight Rules
VFR
Cloud Levels
  • Few at 2,500' AGL
Temperature
13°C / 55°F
Dewpoint
11°C / 52°F
Humidity
88%
Altimeter
29.94" Hg
Pressure
1013.92 hPa